sensor_id;sensor_type;location;lat;lon;timestamp;temperature;humidity
14317;DHT22;7242;50.858;6.586;2022-07-29T00:00:58;20.90;99.90
14317;DHT22;7242;50.858;6.586;2022-07-29T00:13:02;21.00;99.90
14317;DHT22;7242;50.858;6.586;2022-07-29T00:16:03;21.00;99.90
14317;DHT22;7242;50.858;6.586;2022-07-29T00:19:04;21.10;99.90
14317;DHT22;7242;50.858;6.586;2022-07-29T00:22:05;21.00;99.90
14317;DHT22;7242;50.858;6.586;2022-07-29T00:25:06;21.10;99.90
14317;DHT22;7242;50.858;6.586;2022-07-29T00:31:09;21.00;99.90
14317;DHT22;7242;50.858;6.586;2022-07-29T00:34:10;21.00;99.90
14317;DHT22;7242;50.858;6.586;2022-07-29T00:37:30;20.90;99.90
14317;DHT22;7242;50.858;6.586;2022-07-29T00:40:31;20.80;99.90
14317;DHT22;7242;50.858;6.586;2022-07-29T00:43:32;20.80;99.90
14317;DHT22;7242;50.858;6.586;2022-07-29T00:49:34;20.80;99.90
14317;DHT22;7242;50.858;6.586;2022-07-29T00:52:36;20.80;99.90
14317;DHT22;7242;50.858;6.586;2022-07-29T00:55:37;20.80;99.90
14317;DHT22;7242;50.858;6.586;2022-07-29T00:58:39;20.80;99.90
14317;DHT22;7242;50.858;6.586;2022-07-29T01:01:40;20.80;99.90
14317;DHT22;7242;50.858;6.586;2022-07-29T01:04:41;20.70;99.90
14317;DHT22;7242;50.858;6.586;2022-07-29T01:10:44;20.70;99.90
14317;DHT22;7242;50.858;6.586;2022-07-29T01:13:46;20.70;99.90
14317;DHT22;7242;50.858;6.586;2022-07-29T01:17:27;20.60;99.90
14317;DHT22;7242;50.858;6.586;2022-07-29T01:27:14;20.50;99.90
14317;DHT22;7242;50.858;6.586;2022-07-29T01:30:24;20.50;99.90
14317;DHT22;7242;50.858;6.586;2022-07-29T01:33:28;20.40;99.90
14317;DHT22;7242;50.858;6.586;2022-07-29T01:36:54;20.40;99.90
14317;DHT22;7242;50.858;6.586;2022-07-29T01:39:57;20.30;99.90
14317;DHT22;7242;50.858;6.586;2022-07-29T01:43:02;20.30;99.90
14317;DHT22;7242;50.858;6.586;2022-07-29T01:46:09;20.30;99.90
14317;DHT22;7242;50.858;6.586;2022-07-29T01:49:16;20.20;99.90
14317;DHT22;7242;50.858;6.586;2022-07-29T01:52:25;20.20;99.90
14317;DHT22;7242;50.858;6.586;2022-07-29T01:55:32;20.20;99.90
14317;DHT22;7242;50.858;6.586;2022-07-29T01:58:36;20.10;99.90
14317;DHT22;7242;50.858;6.586;2022-07-29T02:01:40;20.10;99.90
14317;DHT22;7242;50.858;6.586;2022-07-29T02:04:44;20.10;99.90
14317;DHT22;7242;50.858;6.586;2022-07-29T02:07:50;20.00;99.90
14317;DHT22;7242;50.858;6.586;2022-07-29T02:10:51;20.00;99.90
14317;DHT22;7242;50.858;6.586;2022-07-29T02:13:55;20.00;99.90
14317;DHT22;7242;50.858;6.586;2022-07-29T02:16:58;20.00;99.90
14317;DHT22;7242;50.858;6.586;2022-07-29T02:20:03;20.00;99.90
14317;DHT22;7242;50.858;6.586;2022-07-29T02:26:07;20.00;99.90
14317;DHT22;7242;50.858;6.586;2022-07-29T02:29:09;20.00;99.90
14317;DHT22;7242;50.858;6.586;2022-07-29T02:32:13;20.00;99.90
14317;DHT22;7242;50.858;6.586;2022-07-29T02:35:16;20.00;99.90
14317;DHT22;7242;50.858;6.586;2022-07-29T02:38:18;19.90;99.90
14317;DHT22;7242;50.858;6.586;2022-07-29T02:41:47;20.00;99.90
14317;DHT22;7242;50.858;6.586;2022-07-29T02:47:51;19.80;99.90
14317;DHT22;7242;50.858;6.586;2022-07-29T02:51:01;19.80;99.90
14317;DHT22;7242;50.858;6.586;2022-07-29T02:54:07;19.70;99.90
14317;DHT22;7242;50.858;6.586;2022-07-29T03:00:30;19.60;99.90
14317;DHT22;7242;50.858;6.586;2022-07-29T03:03:36;19.60;99.90
14317;DHT22;7242;50.858;6.586;2022-07-29T03:06:37;19.50;99.90
14317;DHT22;7242;50.858;6.586;2022-07-29T03:09:43;19.60;99.90
14317;DHT22;7242;50.858;6.586;2022-07-29T03:12:45;19.60;99.90
14317;DHT22;7242;50.858;6.586;2022-07-29T03:15:47;19.60;99.90
14317;DHT22;7242;50.858;6.586;2022-07-29T03:18:48;19.60;99.90
14317;DHT22;7242;50.858;6.586;2022-07-29T03:24:50;19.60;99.90
14317;DHT22;7242;50.858;6.586;2022-07-29T03:27:50;19.50;99.90
14317;DHT22;7242;50.858;6.586;2022-07-29T03:30:51;19.40;99.90
14317;DHT22;7242;50.858;6.586;2022-07-29T03:39:57;19.30;99.90
14317;DHT22;7242;50.858;6.586;2022-07-29T03:42:59;19.30;99.90
14317;DHT22;7242;50.858;6.586;2022-07-29T03:46:01;19.30;99.90
14317;DHT22;7242;50.858;6.586;2022-07-29T03:49:04;19.20;99.90
14317;DHT22;7242;50.858;6.586;2022-07-29T03:52:05;19.10;99.90
14317;DHT22;7242;50.858;6.586;2022-07-29T03:55:07;19.00;99.90
14317;DHT22;7242;50.858;6.586;2022-07-29T04:01:10;18.90;99.90
14317;DHT22;7242;50.858;6.586;2022-07-29T04:04:11;18.90;99.90
14317;DHT22;7242;50.858;6.586;2022-07-29T04:07:13;18.90;99.90
14317;DHT22;7242;50.858;6.586;2022-07-29T04:10:17;18.90;99.90
14317;DHT22;7242;50.858;6.586;2022-07-29T04:13:19;18.80;99.90
14317;DHT22;7242;50.858;6.586;2022-07-29T04:16:20;18.80;99.90
14317;DHT22;7242;50.858;6.586;2022-07-29T04:19:20;18.70;99.90
14317;DHT22;7242;50.858;6.586;2022-07-29T04:25:22;18.70;99.90
14317;DHT22;7242;50.858;6.586;2022-07-29T04:31:26;18.70;99.90
14317;DHT22;7242;50.858;6.586;2022-07-29T04:34:27;18.70;99.90
14317;DHT22;7242;50.858;6.586;2022-07-29T04:40:29;18.80;99.90
14317;DHT22;7242;50.858;6.586;2022-07-29T04:46:31;18.70;99.90
14317;DHT22;7242;50.858;6.586;2022-07-29T04:52:33;18.70;99.90
14317;DHT22;7242;50.858;6.586;2022-07-29T04:55:35;18.70;99.90
14317;DHT22;7242;50.858;6.586;2022-07-29T05:01:38;18.80;99.90
14317;DHT22;7242;50.858;6.586;2022-07-29T05:04:38;18.80;99.90
14317;DHT22;7242;50.858;6.586;2022-07-29T05:13:41;18.80;99.90
14317;DHT22;7242;50.858;6.586;2022-07-29T05:19:44;18.90;99.90
14317;DHT22;7242;50.858;6.586;2022-07-29T05:22:44;18.90;99.90
14317;DHT22;7242;50.858;6.586;2022-07-29T05:25:45;18.90;99.90
14317;DHT22;7242;50.858;6.586;2022-07-29T05:28:46;18.80;99.90
14317;DHT22;7242;50.858;6.586;2022-07-29T05:31:47;18.90;99.90
14317;DHT22;7242;50.858;6.586;2022-07-29T05:43:51;18.90;99.90
14317;DHT22;7242;50.858;6.586;2022-07-29T05:49:53;19.10;99.90
14317;DHT22;7242;50.858;6.586;2022-07-29T05:52:54;19.10;99.90
14317;DHT22;7242;50.858;6.586;2022-07-29T06:01:57;19.20;99.90
14317;DHT22;7242;50.858;6.586;2022-07-29T06:04:58;19.20;99.90
14317;DHT22;7242;50.858;6.586;2022-07-29T06:11:00;19.20;99.90
14317;DHT22;7242;50.858;6.586;2022-07-29T06:14:01;19.30;99.90
14317;DHT22;7242;50.858;6.586;2022-07-29T06:17:04;19.10;99.90
14317;DHT22;7242;50.858;6.586;2022-07-29T06:20:05;19.00;99.90
14317;DHT22;7242;50.858;6.586;2022-07-29T06:29:09;18.90;99.90
14317;DHT22;7242;50.858;6.586;2022-07-29T06:32:13;18.90;99.90
14317;DHT22;7242;50.858;6.586;2022-07-29T06:35:14;18.90;99.90
14317;DHT22;7242;50.858;6.586;2022-07-29T06:38:15;18.90;99.90
14317;DHT22;7242;50.858;6.586;2022-07-29T06:41:16;18.90;99.90
14317;DHT22;7242;50.858;6.586;2022-07-29T06:44:17;18.90;99.90
14317;DHT22;7242;50.858;6.586;2022-07-29T06:47:18;18.90;99.90
14317;DHT22;7242;50.858;6.586;2022-07-29T06:53:20;18.80;99.90
14317;DHT22;7242;50.858;6.586;2022-07-29T06:59:22;18.70;99.90
14317;DHT22;7242;50.858;6.586;2022-07-29T07:05:24;18.30;99.90
14317;DHT22;7242;50.858;6.586;2022-07-29T07:08:25;18.30;99.90
14317;DHT22;7242;50.858;6.586;2022-07-29T07:11:26;18.20;99.90
14317;DHT22;7242;50.858;6.586;2022-07-29T07:14:27;18.30;99.90
14317;DHT22;7242;50.858;6.586;2022-07-29T07:26:31;18.20;99.90
14317;DHT22;7242;50.858;6.586;2022-07-29T07:29:37;18.30;99.90
14317;DHT22;7242;50.858;6.586;2022-07-29T07:44:46;18.30;99.90
14317;DHT22;7242;50.858;6.586;2022-07-29T07:47:48;18.40;99.90
14317;DHT22;7242;50.858;6.586;2022-07-29T07:50:49;18.50;99.90
14317;DHT22;7242;50.858;6.586;2022-07-29T07:53:50;18.50;99.90
14317;DHT22;7242;50.858;6.586;2022-07-29T07:59:52;18.60;99.90
14317;DHT22;7242;50.858;6.586;2022-07-29T08:02:53;18.50;99.90
14317;DHT22;7242;50.858;6.586;2022-07-29T08:08:55;18.50;99.90
14317;DHT22;7242;50.858;6.586;2022-07-29T08:11:57;18.50;99.90
14317;DHT22;7242;50.858;6.586;2022-07-29T08:14:58;18.50;99.90
14317;DHT22;7242;50.858;6.586;2022-07-29T08:18:00;18.60;99.90
14317;DHT22;7242;50.858;6.586;2022-07-29T08:21:01;18.60;99.90
14317;DHT22;7242;50.858;6.586;2022-07-29T08:24:02;18.60;99.90
14317;DHT22;7242;50.858;6.586;2022-07-29T08:27:22;18.80;99.90
14317;DHT22;7242;50.858;6.586;2022-07-29T08:33:24;19.90;99.90
14317;DHT22;7242;50.858;6.586;2022-07-29T08:36:25;20.20;99.90
14317;DHT22;7242;50.858;6.586;2022-07-29T08:39:25;20.80;99.90
14317;DHT22;7242;50.858;6.586;2022-07-29T08:42:27;21.10;99.90
14317;DHT22;7242;50.858;6.586;2022-07-29T08:45:28;21.30;99.90
14317;DHT22;7242;50.858;6.586;2022-07-29T08:48:29;21.40;99.90
14317;DHT22;7242;50.858;6.586;2022-07-29T08:51:33;21.50;99.90
14317;DHT22;7242;50.858;6.586;2022-07-29T08:57:35;21.70;99.90
14317;DHT22;7242;50.858;6.586;2022-07-29T09:00:37;21.90;99.90
14317;DHT22;7242;50.858;6.586;2022-07-29T09:03:43;22.20;99.90
14317;DHT22;7242;50.858;6.586;2022-07-29T09:06:47;22.40;99.90
14317;DHT22;7242;50.858;6.586;2022-07-29T09:09:48;22.60;99.90
14317;DHT22;7242;50.858;6.586;2022-07-29T09:12:49;22.50;99.90
14317;DHT22;7242;50.858;6.586;2022-07-29T09:15:49;22.50;99.90
14317;DHT22;7242;50.858;6.586;2022-07-29T09:18:50;22.50;99.90
14317;DHT22;7242;50.858;6.586;2022-07-29T09:21:51;22.70;99.90
14317;DHT22;7242;50.858;6.586;2022-07-29T09:24:58;22.90;99.90
14317;DHT22;7242;50.858;6.586;2022-07-29T09:28:06;23.00;99.90
14317;DHT22;7242;50.858;6.586;2022-07-29T09:31:08;23.10;99.90
14317;DHT22;7242;50.858;6.586;2022-07-29T09:34:09;23.10;99.90
14317;DHT22;7242;50.858;6.586;2022-07-29T09:40:32;23.50;99.90
14317;DHT22;7242;50.858;6.586;2022-07-29T09:43:33;23.60;99.90
14317;DHT22;7242;50.858;6.586;2022-07-29T09:46:34;23.80;99.90
14317;DHT22;7242;50.858;6.586;2022-07-29T09:49:49;23.90;99.90
14317;DHT22;7242;50.858;6.586;2022-07-29T09:52:52;24.10;99.90
14317;DHT22;7242;50.858;6.586;2022-07-29T09:59:08;24.50;99.90
14317;DHT22;7242;50.858;6.586;2022-07-29T10:02:12;24.70;99.90
14317;DHT22;7242;50.858;6.586;2022-07-29T10:05:23;24.90;99.90
14317;DHT22;7242;50.858;6.586;2022-07-29T10:08:27;25.10;99.90
14317;DHT22;7242;50.858;6.586;2022-07-29T10:14:31;25.40;99.90
14317;DHT22;7242;50.858;6.586;2022-07-29T10:17:33;25.30;99.90
14317;DHT22;7242;50.858;6.586;2022-07-29T10:20:34;25.30;99.90
14317;DHT22;7242;50.858;6.586;2022-07-29T10:26:36;25.30;99.90
14317;DHT22;7242;50.858;6.586;2022-07-29T10:29:40;25.30;99.90
14317;DHT22;7242;50.858;6.586;2022-07-29T10:36:21;25.20;99.90
14317;DHT22;7242;50.858;6.586;2022-07-29T10:42:55;25.30;99.90
14317;DHT22;7242;50.858;6.586;2022-07-29T10:46:00;25.40;99.90
14317;DHT22;7242;50.858;6.586;2022-07-29T10:49:08;25.40;99.90
14317;DHT22;7242;50.858;6.586;2022-07-29T10:52:09;25.40;99.90
14317;DHT22;7242;50.858;6.586;2022-07-29T10:55:33;25.40;99.90
14317;DHT22;7242;50.858;6.586;2022-07-29T11:14:57;25.40;99.90
14317;DHT22;7242;50.858;6.586;2022-07-29T11:24:13;25.60;99.90
14317;DHT22;7242;50.858;6.586;2022-07-29T11:27:18;25.70;99.90
14317;DHT22;7242;50.858;6.586;2022-07-29T11:30:49;25.80;99.90
14317;DHT22;7242;50.858;6.586;2022-07-29T11:33:50;25.90;99.90
14317;DHT22;7242;50.858;6.586;2022-07-29T11:40:09;26.00;99.90
14317;DHT22;7242;50.858;6.586;2022-07-29T11:43:52;25.90;99.90
14317;DHT22;7242;50.858;6.586;2022-07-29T11:46:52;26.00;99.90
14317;DHT22;7242;50.858;6.586;2022-07-29T11:49:55;26.10;99.90
14317;DHT22;7242;50.858;6.586;2022-07-29T11:52:56;26.10;99.90
14317;DHT22;7242;50.858;6.586;2022-07-29T11:55:59;26.10;99.90
14317;DHT22;7242;50.858;6.586;2022-07-29T11:59:05;26.10;99.90
14317;DHT22;7242;50.858;6.586;2022-07-29T12:05:09;26.30;99.90
14317;DHT22;7242;50.858;6.586;2022-07-29T12:08:21;26.40;99.90
14317;DHT22;7242;50.858;6.586;2022-07-29T12:11:22;26.50;99.90
14317;DHT22;7242;50.858;6.586;2022-07-29T12:14:30;26.40;99.90
14317;DHT22;7242;50.858;6.586;2022-07-29T12:17:33;26.30;99.90
14317;DHT22;7242;50.858;6.586;2022-07-29T12:23:35;26.30;99.90
14317;DHT22;7242;50.858;6.586;2022-07-29T12:26:36;26.30;99.90
14317;DHT22;7242;50.858;6.586;2022-07-29T12:29:59;26.20;99.90
14317;DHT22;7242;50.858;6.586;2022-07-29T12:33:01;26.20;99.90
14317;DHT22;7242;50.858;6.586;2022-07-29T12:36:02;26.30;99.90
14317;DHT22;7242;50.858;6.586;2022-07-29T12:42:12;26.30;99.90
14317;DHT22;7242;50.858;6.586;2022-07-29T12:45:13;26.40;99.90
14317;DHT22;7242;50.858;6.586;2022-07-29T12:48:18;26.60;99.90
14317;DHT22;7242;50.858;6.586;2022-07-29T12:54:33;26.60;99.90
14317;DHT22;7242;50.858;6.586;2022-07-29T12:57:49;26.50;99.90
14317;DHT22;7242;50.858;6.586;2022-07-29T13:01:08;26.60;99.90
14317;DHT22;7242;50.858;6.586;2022-07-29T13:07:10;26.70;99.90
14317;DHT22;7242;50.858;6.586;2022-07-29T13:10:17;26.90;99.90
14317;DHT22;7242;50.858;6.586;2022-07-29T13:13:18;26.80;99.90
14317;DHT22;7242;50.858;6.586;2022-07-29T13:16:18;26.90;99.90
14317;DHT22;7242;50.858;6.586;2022-07-29T13:19:19;26.90;99.90
14317;DHT22;7242;50.858;6.586;2022-07-29T13:22:23;27.00;99.90
14317;DHT22;7242;50.858;6.586;2022-07-29T13:25:30;27.00;99.90
14317;DHT22;7242;50.858;6.586;2022-07-29T13:31:33;27.20;99.90
14317;DHT22;7242;50.858;6.586;2022-07-29T13:34:33;27.20;99.90
14317;DHT22;7242;50.858;6.586;2022-07-29T13:37:35;27.20;99.90
14317;DHT22;7242;50.858;6.586;2022-07-29T13:43:39;27.30;99.90
14317;DHT22;7242;50.858;6.586;2022-07-29T13:46:40;27.30;99.90
14317;DHT22;7242;50.858;6.586;2022-07-29T13:49:41;27.40;99.90
14317;DHT22;7242;50.858;6.586;2022-07-29T13:52:41;27.30;99.90
14317;DHT22;7242;50.858;6.586;2022-07-29T13:55:42;27.40;99.90
14317;DHT22;7242;50.858;6.586;2022-07-29T14:01:44;27.40;99.90
14317;DHT22;7242;50.858;6.586;2022-07-29T14:04:45;27.30;99.90
14317;DHT22;7242;50.858;6.586;2022-07-29T14:10:46;27.20;99.90
14317;DHT22;7242;50.858;6.586;2022-07-29T14:13:47;27.20;99.90
14317;DHT22;7242;50.858;6.586;2022-07-29T14:25:51;27.10;99.90
14317;DHT22;7242;50.858;6.586;2022-07-29T14:28:52;27.10;99.90
14317;DHT22;7242;50.858;6.586;2022-07-29T14:31:53;27.10;99.90
14317;DHT22;7242;50.858;6.586;2022-07-29T14:34:53;27.20;99.90
14317;DHT22;7242;50.858;6.586;2022-07-29T14:37:54;27.20;99.90
14317;DHT22;7242;50.858;6.586;2022-07-29T14:40:55;27.30;99.90
14317;DHT22;7242;50.858;6.586;2022-07-29T14:43:56;27.40;99.90
14317;DHT22;7242;50.858;6.586;2022-07-29T14:47:00;27.30;99.90
14317;DHT22;7242;50.858;6.586;2022-07-29T14:50:01;27.30;99.90
14317;DHT22;7242;50.858;6.586;2022-07-29T14:53:02;27.20;99.90
14317;DHT22;7242;50.858;6.586;2022-07-29T14:59:04;27.20;99.90
14317;DHT22;7242;50.858;6.586;2022-07-29T15:02:06;27.30;99.90
14317;DHT22;7242;50.858;6.586;2022-07-29T15:05:07;27.30;99.90
14317;DHT22;7242;50.858;6.586;2022-07-29T15:11:09;27.30;99.90
14317;DHT22;7242;50.858;6.586;2022-07-29T15:14:10;27.20;99.90
14317;DHT22;7242;50.858;6.586;2022-07-29T15:17:11;27.20;99.90
14317;DHT22;7242;50.858;6.586;2022-07-29T15:20:12;27.20;99.90
14317;DHT22;7242;50.858;6.586;2022-07-29T15:23:13;27.20;99.90
14317;DHT22;7242;50.858;6.586;2022-07-29T15:26:13;27.10;99.90
14317;DHT22;7242;50.858;6.586;2022-07-29T15:29:14;27.10;99.90
14317;DHT22;7242;50.858;6.586;2022-07-29T15:35:16;26.90;99.90
14317;DHT22;7242;50.858;6.586;2022-07-29T15:38:17;26.90;99.90
14317;DHT22;7242;50.858;6.586;2022-07-29T15:41:18;26.80;99.90
14317;DHT22;7242;50.858;6.586;2022-07-29T15:44:19;26.70;99.90
14317;DHT22;7242;50.858;6.586;2022-07-29T15:47:20;26.60;99.90
14317;DHT22;7242;50.858;6.586;2022-07-29T15:53:22;26.60;99.90
14317;DHT22;7242;50.858;6.586;2022-07-29T15:56:23;26.60;99.90
14317;DHT22;7242;50.858;6.586;2022-07-29T16:02:25;26.70;99.90
14317;DHT22;7242;50.858;6.586;2022-07-29T16:08:29;26.70;99.90
14317;DHT22;7242;50.858;6.586;2022-07-29T16:11:29;26.70;99.90
14317;DHT22;7242;50.858;6.586;2022-07-29T16:17:31;26.90;99.90
14317;DHT22;7242;50.858;6.586;2022-07-29T16:20:32;26.80;99.90
14317;DHT22;7242;50.858;6.586;2022-07-29T16:23:33;26.90;99.90
14317;DHT22;7242;50.858;6.586;2022-07-29T16:26:34;27.00;99.90
14317;DHT22;7242;50.858;6.586;2022-07-29T16:35:37;27.00;99.90
14317;DHT22;7242;50.858;6.586;2022-07-29T16:41:41;27.00;99.90
14317;DHT22;7242;50.858;6.586;2022-07-29T16:47:43;27.00;99.90
14317;DHT22;7242;50.858;6.586;2022-07-29T16:50:44;27.00;99.90
14317;DHT22;7242;50.858;6.586;2022-07-29T16:53:44;27.00;99.90
14317;DHT22;7242;50.858;6.586;2022-07-29T16:56:45;26.90;99.90
14317;DHT22;7242;50.858;6.586;2022-07-29T16:59:46;26.70;99.90
14317;DHT22;7242;50.858;6.586;2022-07-29T17:02:49;26.60;99.90
14317;DHT22;7242;50.858;6.586;2022-07-29T17:05:50;26.40;99.90
14317;DHT22;7242;50.858;6.586;2022-07-29T17:11:52;26.40;99.90
14317;DHT22;7242;50.858;6.586;2022-07-29T17:17:54;26.30;99.90
14317;DHT22;7242;50.858;6.586;2022-07-29T17:20:54;26.30;99.90
14317;DHT22;7242;50.858;6.586;2022-07-29T17:26:58;26.10;99.90
14317;DHT22;7242;50.858;6.586;2022-07-29T17:29:59;26.00;99.90
14317;DHT22;7242;50.858;6.586;2022-07-29T17:36:01;25.90;99.90
14317;DHT22;7242;50.858;6.586;2022-07-29T17:39:20;25.70;99.90
14317;DHT22;7242;50.858;6.586;2022-07-29T17:42:21;25.60;99.90
14317;DHT22;7242;50.858;6.586;2022-07-29T17:45:21;25.50;99.90
14317;DHT22;7242;50.858;6.586;2022-07-29T17:51:24;25.50;99.90
14317;DHT22;7242;50.858;6.586;2022-07-29T17:54:25;25.50;99.90
14317;DHT22;7242;50.858;6.586;2022-07-29T17:57:26;25.50;99.90
14317;DHT22;7242;50.858;6.586;2022-07-29T18:03:28;25.50;99.90
14317;DHT22;7242;50.858;6.586;2022-07-29T18:06:28;25.40;99.90
14317;DHT22;7242;50.858;6.586;2022-07-29T18:09:29;25.40;99.90
14317;DHT22;7242;50.858;6.586;2022-07-29T18:12:30;25.40;99.90
14317;DHT22;7242;50.858;6.586;2022-07-29T18:15:31;25.40;99.90
14317;DHT22;7242;50.858;6.586;2022-07-29T18:21:32;25.20;99.90
14317;DHT22;7242;50.858;6.586;2022-07-29T18:24:34;25.20;99.90
14317;DHT22;7242;50.858;6.586;2022-07-29T18:27:35;25.10;99.90
14317;DHT22;7242;50.858;6.586;2022-07-29T18:30:36;25.00;99.90
14317;DHT22;7242;50.858;6.586;2022-07-29T18:33:37;24.90;99.90
14317;DHT22;7242;50.858;6.586;2022-07-29T18:36:39;24.90;99.90
14317;DHT22;7242;50.858;6.586;2022-07-29T18:42:41;24.70;99.90
14317;DHT22;7242;50.858;6.586;2022-07-29T18:45:42;24.60;99.90
14317;DHT22;7242;50.858;6.586;2022-07-29T18:53:06;24.40;99.90
14317;DHT22;7242;50.858;6.586;2022-07-29T18:59:08;24.30;99.90
14317;DHT22;7242;50.858;6.586;2022-07-29T19:02:09;24.10;99.90
14317;DHT22;7242;50.858;6.586;2022-07-29T19:05:10;24.10;99.90
14317;DHT22;7242;50.858;6.586;2022-07-29T19:08:11;24.10;99.90
14317;DHT22;7242;50.858;6.586;2022-07-29T19:14:12;23.90;99.90
14317;DHT22;7242;50.858;6.586;2022-07-29T19:17:13;23.80;99.90
14317;DHT22;7242;50.858;6.586;2022-07-29T19:20:14;23.80;99.90
14317;DHT22;7242;50.858;6.586;2022-07-29T19:23:15;23.80;99.90
14317;DHT22;7242;50.858;6.586;2022-07-29T19:26:16;23.70;99.90
14317;DHT22;7242;50.858;6.586;2022-07-29T19:29:17;23.60;99.90
14317;DHT22;7242;50.858;6.586;2022-07-29T19:38:32;23.50;99.90
14317;DHT22;7242;50.858;6.586;2022-07-29T19:44:34;23.50;99.90
14317;DHT22;7242;50.858;6.586;2022-07-29T19:50:36;23.50;99.90
14317;DHT22;7242;50.858;6.586;2022-07-29T19:56:39;23.40;99.90
14317;DHT22;7242;50.858;6.586;2022-07-29T19:59:41;23.40;99.90
14317;DHT22;7242;50.858;6.586;2022-07-29T20:05:43;23.40;99.90
14317;DHT22;7242;50.858;6.586;2022-07-29T20:08:43;23.40;99.90
14317;DHT22;7242;50.858;6.586;2022-07-29T20:11:44;23.40;99.90
14317;DHT22;7242;50.858;6.586;2022-07-29T20:14:45;23.40;99.90
14317;DHT22;7242;50.858;6.586;2022-07-29T20:17:46;23.40;99.90
14317;DHT22;7242;50.858;6.586;2022-07-29T20:20:47;23.40;99.90
14317;DHT22;7242;50.858;6.586;2022-07-29T20:26:50;23.40;99.90
14317;DHT22;7242;50.858;6.586;2022-07-29T20:29:50;23.30;99.90
14317;DHT22;7242;50.858;6.586;2022-07-29T20:32:51;23.20;99.90
14317;DHT22;7242;50.858;6.586;2022-07-29T20:44:55;23.10;99.90
14317;DHT22;7242;50.858;6.586;2022-07-29T20:47:57;23.00;99.90
14317;DHT22;7242;50.858;6.586;2022-07-29T20:50:58;22.90;99.90
14317;DHT22;7242;50.858;6.586;2022-07-29T20:53:59;22.80;99.90
14317;DHT22;7242;50.858;6.586;2022-07-29T20:57:00;22.70;99.90
14317;DHT22;7242;50.858;6.586;2022-07-29T21:00:01;22.70;99.90
14317;DHT22;7242;50.858;6.586;2022-07-29T21:03:02;22.60;99.90
14317;DHT22;7242;50.858;6.586;2022-07-29T21:06:03;22.60;99.90
14317;DHT22;7242;50.858;6.586;2022-07-29T21:12:05;22.40;99.90
14317;DHT22;7242;50.858;6.586;2022-07-29T21:15:07;22.40;99.90
14317;DHT22;7242;50.858;6.586;2022-07-29T21:18:07;22.30;99.90
14317;DHT22;7242;50.858;6.586;2022-07-29T21:24:27;22.20;99.90
14317;DHT22;7242;50.858;6.586;2022-07-29T21:27:28;22.20;99.90
14317;DHT22;7242;50.858;6.586;2022-07-29T21:30:47;22.10;99.90
14317;DHT22;7242;50.858;6.586;2022-07-29T21:33:47;22.00;99.90
14317;DHT22;7242;50.858;6.586;2022-07-29T21:39:49;21.80;99.90
14317;DHT22;7242;50.858;6.586;2022-07-29T21:42:50;21.80;99.90
14317;DHT22;7242;50.858;6.586;2022-07-29T21:45:51;21.60;99.90
14317;DHT22;7242;50.858;6.586;2022-07-29T21:48:52;21.50;99.90
14317;DHT22;7242;50.858;6.586;2022-07-29T21:54:54;21.30;99.90
14317;DHT22;7242;50.858;6.586;2022-07-29T21:57:56;21.20;99.90
14317;DHT22;7242;50.858;6.586;2022-07-29T22:00:56;21.20;99.90
14317;DHT22;7242;50.858;6.586;2022-07-29T22:06:59;21.30;99.90
14317;DHT22;7242;50.858;6.586;2022-07-29T22:09:59;21.20;99.90
14317;DHT22;7242;50.858;6.586;2022-07-29T22:13:01;21.20;99.90
14317;DHT22;7242;50.858;6.586;2022-07-29T22:16:02;21.20;99.90
14317;DHT22;7242;50.858;6.586;2022-07-29T22:25:06;21.00;99.90
14317;DHT22;7242;50.858;6.586;2022-07-29T22:28:07;21.00;99.90
14317;DHT22;7242;50.858;6.586;2022-07-29T22:31:08;21.00;99.90
14317;DHT22;7242;50.858;6.586;2022-07-29T22:37:12;20.90;99.90
14317;DHT22;7242;50.858;6.586;2022-07-29T22:43:14;20.60;99.90
14317;DHT22;7242;50.858;6.586;2022-07-29T22:46:15;20.50;99.90
14317;DHT22;7242;50.858;6.586;2022-07-29T22:52:16;20.30;99.90
14317;DHT22;7242;50.858;6.586;2022-07-29T22:55:17;20.20;99.90
14317;DHT22;7242;50.858;6.586;2022-07-29T23:01:19;20.10;99.90
14317;DHT22;7242;50.858;6.586;2022-07-29T23:04:19;20.10;99.90
14317;DHT22;7242;50.858;6.586;2022-07-29T23:07:23;20.00;99.90
14317;DHT22;7242;50.858;6.586;2022-07-29T23:10:24;20.00;99.90
14317;DHT22;7242;50.858;6.586;2022-07-29T23:19:27;19.90;99.90
14317;DHT22;7242;50.858;6.586;2022-07-29T23:22:28;19.90;99.90
14317;DHT22;7242;50.858;6.586;2022-07-29T23:28:30;19.70;99.90
14317;DHT22;7242;50.858;6.586;2022-07-29T23:34:32;19.50;99.90
14317;DHT22;7242;50.858;6.586;2022-07-29T23:37:33;19.50;99.90
14317;DHT22;7242;50.858;6.586;2022-07-29T23:40:34;19.50;99.90
14317;DHT22;7242;50.858;6.586;2022-07-29T23:43:36;19.40;99.90
14317;DHT22;7242;50.858;6.586;2022-07-29T23:46:36;19.40;99.90
14317;DHT22;7242;50.858;6.586;2022-07-29T23:49:37;19.30;99.90
14317;DHT22;7242;50.858;6.586;2022-07-29T23:52:39;19.40;99.90
14317;DHT22;7242;50.858;6.586;2022-07-29T23:58:41;19.40;99.90
